sensor_id;sensor_type;location;lat;lon;timestamp;pressure;altitude;pressure_sealevel;temperature;humidity
24762;BME280;12865;51.934;10.330;2023-05-18T00:00:54;100294.97;;;5.14;100.00
24762;BME280;12865;51.934;10.330;2023-05-18T00:03:40;100291.41;;;5.15;100.00
24762;BME280;12865;51.934;10.330;2023-05-18T00:06:26;100294.75;;;5.19;100.00
24762;BME280;12865;51.934;10.330;2023-05-18T00:09:12;100290.28;;;5.19;100.00
24762;BME280;12865;51.934;10.330;2023-05-18T00:11:59;100295.59;;;5.19;100.00
24762;BME280;12865;51.934;10.330;2023-05-18T00:14:45;100289.47;;;5.19;100.00
24762;BME280;12865;51.934;10.330;2023-05-18T00:17:31;100285.97;;;5.18;100.00
24762;BME280;12865;51.934;10.330;2023-05-18T00:20:16;100287.50;;;5.05;100.00
24762;BME280;12865;51.934;10.330;2023-05-18T00:23:03;100282.94;;;5.08;100.00
24762;BME280;12865;51.934;10.330;2023-05-18T00:25:48;100283.19;;;5.04;100.00
24762;BME280;12865;51.934;10.330;2023-05-18T00:28:34;100283.78;;;5.09;100.00
24762;BME280;12865;51.934;10.330;2023-05-18T00:31:20;100288.84;;;5.13;100.00
24762;BME280;12865;51.934;10.330;2023-05-18T00:34:09;100292.78;;;5.22;100.00
24762;BME280;12865;51.934;10.330;2023-05-18T00:36:55;100290.47;;;5.16;100.00
24762;BME280;12865;51.934;10.330;2023-05-18T00:39:40;100287.03;;;5.14;100.00
24762;BME280;12865;51.934;10.330;2023-05-18T00:42:26;100286.81;;;5.19;100.00
24762;BME280;12865;51.934;10.330;2023-05-18T00:45:12;100292.13;;;5.19;100.00
24762;BME280;12865;51.934;10.330;2023-05-18T00:47:57;100290.22;;;5.21;100.00
24762;BME280;12865;51.934;10.330;2023-05-18T00:50:44;100293.72;;;5.21;100.00
24762;BME280;12865;51.934;10.330;2023-05-18T00:53:31;100295.03;;;5.12;100.00
24762;BME280;12865;51.934;10.330;2023-05-18T00:56:17;100298.16;;;5.21;100.00
24762;BME280;12865;51.934;10.330;2023-05-18T00:59:03;100290.09;;;5.06;100.00
24762;BME280;12865;51.934;10.330;2023-05-18T01:01:49;100292.72;;;5.06;100.00
24762;BME280;12865;51.934;10.330;2023-05-18T01:04:35;100293.44;;;5.10;100.00
24762;BME280;12865;51.934;10.330;2023-05-18T01:07:22;100294.13;;;5.13;100.00
24762;BME280;12865;51.934;10.330;2023-05-18T01:10:11;100297.78;;;5.11;100.00
24762;BME280;12865;51.934;10.330;2023-05-18T01:13:05;100298.00;;;5.06;100.00
24762;BME280;12865;51.934;10.330;2023-05-18T01:15:56;100306.19;;;5.02;100.00
24762;BME280;12865;51.934;10.330;2023-05-18T01:18:50;100304.47;;;5.01;100.00
24762;BME280;12865;51.934;10.330;2023-05-18T01:21:48;100302.75;;;5.00;100.00
24762;BME280;12865;51.934;10.330;2023-05-18T01:24:44;100299.44;;;4.96;100.00
24762;BME280;12865;51.934;10.330;2023-05-18T01:27:33;100308.34;;;4.94;100.00
24762;BME280;12865;51.934;10.330;2023-05-18T01:30:22;100303.47;;;4.86;100.00
24762;BME280;12865;51.934;10.330;2023-05-18T01:33:09;100309.84;;;4.82;100.00
24762;BME280;12865;51.934;10.330;2023-05-18T01:35:55;100315.81;;;4.86;100.00
24762;BME280;12865;51.934;10.330;2023-05-18T01:38:41;100318.63;;;4.83;100.00
24762;BME280;12865;51.934;10.330;2023-05-18T01:41:28;100316.19;;;4.78;100.00
24762;BME280;12865;51.934;10.330;2023-05-18T01:44:20;100319.69;;;4.79;100.00
24762;BME280;12865;51.934;10.330;2023-05-18T01:47:12;100317.22;;;4.76;100.00
24762;BME280;12865;51.934;10.330;2023-05-18T01:50:09;100315.72;;;4.70;100.00
24762;BME280;12865;51.934;10.330;2023-05-18T01:53:13;100318.53;;;4.67;100.00
24762;BME280;12865;51.934;10.330;2023-05-18T01:56:04;100318.59;;;4.65;100.00
24762;BME280;12865;51.934;10.330;2023-05-18T01:58:51;100322.16;;;4.64;100.00
24762;BME280;12865;51.934;10.330;2023-05-18T02:01:37;100316.13;;;4.62;100.00
24762;BME280;12865;51.934;10.330;2023-05-18T02:04:23;100315.31;;;4.60;100.00
24762;BME280;12865;51.934;10.330;2023-05-18T02:07:08;100315.31;;;4.60;100.00
24762;BME280;12865;51.934;10.330;2023-05-18T02:09:54;100317.03;;;4.61;100.00
24762;BME280;12865;51.934;10.330;2023-05-18T02:12:40;100317.19;;;4.58;100.00
24762;BME280;12865;51.934;10.330;2023-05-18T02:15:26;100316.94;;;4.63;100.00
24762;BME280;12865;51.934;10.330;2023-05-18T02:18:11;100316.63;;;4.52;100.00
24762;BME280;12865;51.934;10.330;2023-05-18T02:20:57;100311.09;;;4.56;100.00
24762;BME280;12865;51.934;10.330;2023-05-18T02:23:44;100314.06;;;4.50;100.00
24762;BME280;12865;51.934;10.330;2023-05-18T02:26:29;100312.34;;;4.49;100.00
24762;BME280;12865;51.934;10.330;2023-05-18T02:29:16;100316.06;;;4.45;100.00
24762;BME280;12865;51.934;10.330;2023-05-18T02:32:01;100315.28;;;4.43;100.00
24762;BME280;12865;51.934;10.330;2023-05-18T02:34:51;100309.88;;;4.46;100.00
24762;BME280;12865;51.934;10.330;2023-05-18T02:37:37;100316.13;;;4.44;100.00
24762;BME280;12865;51.934;10.330;2023-05-18T02:40:27;100315.34;;;4.42;100.00
24762;BME280;12865;51.934;10.330;2023-05-18T02:43:13;100325.16;;;4.40;100.00
24762;BME280;12865;51.934;10.330;2023-05-18T02:45:58;100323.81;;;4.31;100.00
24762;BME280;12865;51.934;10.330;2023-05-18T02:48:44;100324.50;;;4.34;100.00
24762;BME280;12865;51.934;10.330;2023-05-18T02:51:30;100322.31;;;4.25;100.00
24762;BME280;12865;51.934;10.330;2023-05-18T02:54:15;100317.03;;;4.25;100.00
24762;BME280;12865;51.934;10.330;2023-05-18T02:57:01;100323.31;;;4.23;100.00
24762;BME280;12865;51.934;10.330;2023-05-18T02:59:47;100320.53;;;4.26;100.00
24762;BME280;12865;51.934;10.330;2023-05-18T03:02:32;100319.75;;;4.24;100.00
24762;BME280;12865;51.934;10.330;2023-05-18T03:05:23;100319.59;;;4.27;100.00
24762;BME280;12865;51.934;10.330;2023-05-18T03:08:08;100313.47;;;4.26;100.00
24762;BME280;12865;51.934;10.330;2023-05-18T03:10:55;100315.09;;;4.29;100.00
24762;BME280;12865;51.934;10.330;2023-05-18T03:13:40;100320.81;;;4.20;100.00
24762;BME280;12865;51.934;10.330;2023-05-18T03:16:26;100317.41;;;4.18;100.00
24762;BME280;12865;51.934;10.330;2023-05-18T03:19:12;100319.09;;;4.19;100.00
24762;BME280;12865;51.934;10.330;2023-05-18T03:22:00;100327.81;;;4.02;100.00
24762;BME280;12865;51.934;10.330;2023-05-18T03:24:45;100319.41;;;4.13;100.00
24762;BME280;12865;51.934;10.330;2023-05-18T03:27:35;100320.25;;;4.13;100.00
24762;BME280;12865;51.934;10.330;2023-05-18T03:30:22;100327.03;;;4.19;100.00
24762;BME280;12865;51.934;10.330;2023-05-18T03:33:07;100322.09;;;4.30;100.00
24762;BME280;12865;51.934;10.330;2023-05-18T03:35:53;100315.69;;;4.17;100.00
24762;BME280;12865;51.934;10.330;2023-05-18T03:38:39;100324.94;;;4.07;100.00
24762;BME280;12865;51.934;10.330;2023-05-18T03:41:26;100319.41;;;4.13;100.00
24762;BME280;12865;51.934;10.330;2023-05-18T03:44:11;100317.69;;;4.12;100.00
24762;BME280;12865;51.934;10.330;2023-05-18T03:46:57;100314.03;;;4.14;100.00
24762;BME280;12865;51.934;10.330;2023-05-18T03:49:43;100324.19;;;4.05;100.00
24762;BME280;12865;51.934;10.330;2023-05-18T03:52:28;100320.69;;;4.04;100.00
24762;BME280;12865;51.934;10.330;2023-05-18T03:55:15;100324.81;;;4.10;100.00
24762;BME280;12865;51.934;10.330;2023-05-18T03:58:01;100328.38;;;4.09;100.00
24762;BME280;12865;51.934;10.330;2023-05-18T04:00:47;100328.44;;;4.07;100.00
24762;BME280;12865;51.934;10.330;2023-05-18T04:03:33;100315.91;;;4.12;100.00
24762;BME280;12865;51.934;10.330;2023-05-18T04:06:19;100320.31;;;4.12;100.00
24762;BME280;12865;51.934;10.330;2023-05-18T04:09:06;100325.16;;;4.21;100.00
24762;BME280;12865;51.934;10.330;2023-05-18T04:11:52;100324.59;;;4.14;100.00
24762;BME280;12865;51.934;10.330;2023-05-18T04:14:38;100329.88;;;4.14;100.00
24762;BME280;12865;51.934;10.330;2023-05-18T04:17:26;100336.09;;;4.13;100.00
24762;BME280;12865;51.934;10.330;2023-05-18T04:20:12;100337.53;;;4.20;100.00
24762;BME280;12865;51.934;10.330;2023-05-18T04:22:58;100336.78;;;4.17;100.00
24762;BME280;12865;51.934;10.330;2023-05-18T04:25:44;100341.78;;;4.23;100.00
24762;BME280;12865;51.934;10.330;2023-05-18T04:28:30;100338.50;;;4.18;100.00
24762;BME280;12865;51.934;10.330;2023-05-18T04:31:16;100337.41;;;4.22;100.00
24762;BME280;12865;51.934;10.330;2023-05-18T04:34:02;100341.41;;;4.30;100.00
24762;BME280;12865;51.934;10.330;2023-05-18T04:36:48;100340.13;;;4.39;100.00
24762;BME280;12865;51.934;10.330;2023-05-18T04:39:33;100343.25;;;4.47;100.00
24762;BME280;12865;51.934;10.330;2023-05-18T04:42:19;100340.41;;;4.52;100.00
24762;BME280;12865;51.934;10.330;2023-05-18T04:45:05;100341.66;;;4.62;100.00
24762;BME280;12865;51.934;10.330;2023-05-18T04:47:51;100345.78;;;4.67;100.00
24762;BME280;12865;51.934;10.330;2023-05-18T04:50:39;100353.53;;;4.70;100.00
24762;BME280;12865;51.934;10.330;2023-05-18T04:53:26;100352.09;;;4.82;100.00
24762;BME280;12865;51.934;10.330;2023-05-18T04:56:12;100350.00;;;4.89;100.00
24762;BME280;12865;51.934;10.330;2023-05-18T04:58:58;100354.53;;;5.04;100.00
24762;BME280;12865;51.934;10.330;2023-05-18T05:01:44;100353.53;;;5.24;100.00
24762;BME280;12865;51.934;10.330;2023-05-18T05:04:30;100351.09;;;5.36;100.00
24762;BME280;12865;51.934;10.330;2023-05-18T05:07:16;100355.34;;;5.56;100.00
24762;BME280;12865;51.934;10.330;2023-05-18T05:10:02;100354.09;;;5.63;100.00
24762;BME280;12865;51.934;10.330;2023-05-18T05:12:50;100355.66;;;5.67;100.00
24762;BME280;12865;51.934;10.330;2023-05-18T05:15:36;100356.19;;;5.74;100.00
24762;BME280;12865;51.934;10.330;2023-05-18T05:18:22;100365.13;;;5.88;100.00
24762;BME280;12865;51.934;10.330;2023-05-18T05:21:08;100347.72;;;6.00;100.00
24762;BME280;12865;51.934;10.330;2023-05-18T05:23:54;100351.03;;;6.04;100.00
24762;BME280;12865;51.934;10.330;2023-05-18T05:26:39;100351.34;;;6.15;100.00
24762;BME280;12865;51.934;10.330;2023-05-18T05:29:25;100358.84;;;6.22;100.00
24762;BME280;12865;51.934;10.330;2023-05-18T05:32:12;100351.34;;;6.30;100.00
24762;BME280;12865;51.934;10.330;2023-05-18T05:34:58;100354.31;;;6.40;100.00
24762;BME280;12865;51.934;10.330;2023-05-18T05:37:43;100349.03;;;6.56;100.00
24762;BME280;12865;51.934;10.330;2023-05-18T05:40:29;100347.81;;;6.61;100.00
24762;BME280;12865;51.934;10.330;2023-05-18T05:43:15;100347.97;;;6.74;100.00
24762;BME280;12865;51.934;10.330;2023-05-18T05:46:01;100350.53;;;6.76;100.00
24762;BME280;12865;51.934;10.330;2023-05-18T05:48:47;100348.78;;;6.90;100.00
24762;BME280;12865;51.934;10.330;2023-05-18T05:51:32;100355.78;;;7.07;100.00
24762;BME280;12865;51.934;10.330;2023-05-18T05:54:18;100357.66;;;7.05;98.88
24762;BME280;12865;51.934;10.330;2023-05-18T05:57:04;100352.84;;;7.12;99.34
24762;BME280;12865;51.934;10.330;2023-05-18T05:59:50;100354.41;;;7.30;98.55
24762;BME280;12865;51.934;10.330;2023-05-18T06:02:36;100350.06;;;7.43;96.03
24762;BME280;12865;51.934;10.330;2023-05-18T06:05:22;100350.38;;;7.53;93.55
24762;BME280;12865;51.934;10.330;2023-05-18T06:08:07;100352.66;;;7.59;92.64
24762;BME280;12865;51.934;10.330;2023-05-18T06:10:54;100351.63;;;7.61;90.45
24762;BME280;12865;51.934;10.330;2023-05-18T06:13:39;100357.41;;;7.68;90.12
24762;BME280;12865;51.934;10.330;2023-05-18T06:16:25;100363.88;;;7.64;89.30
24762;BME280;12865;51.934;10.330;2023-05-18T06:19:11;100363.13;;;7.76;90.67
24762;BME280;12865;51.934;10.330;2023-05-18T06:21:56;100366.16;;;7.70;90.18
24762;BME280;12865;51.934;10.330;2023-05-18T06:24:42;100369.66;;;7.70;90.53
24762;BME280;12865;51.934;10.330;2023-05-18T06:27:28;100373.34;;;7.82;92.19
24762;BME280;12865;51.934;10.330;2023-05-18T06:30:13;100375.78;;;8.13;90.77
24762;BME280;12865;51.934;10.330;2023-05-18T06:32:59;100378.84;;;8.07;89.65
24762;BME280;12865;51.934;10.330;2023-05-18T06:35:45;100371.47;;;8.12;90.11
24762;BME280;12865;51.934;10.330;2023-05-18T06:38:31;100382.34;;;7.94;91.64
24762;BME280;12865;51.934;10.330;2023-05-18T06:41:17;100383.88;;;7.83;92.74
24762;BME280;12865;51.934;10.330;2023-05-18T06:44:02;100376.66;;;8.14;91.28
24762;BME280;12865;51.934;10.330;2023-05-18T06:46:48;100373.06;;;8.15;92.90
24762;BME280;12865;51.934;10.330;2023-05-18T06:49:34;100376.84;;;8.25;92.89
24762;BME280;12865;51.934;10.330;2023-05-18T06:52:20;100379.78;;;8.35;91.85
24762;BME280;12865;51.934;10.330;2023-05-18T06:55:06;100388.41;;;8.52;92.33
24762;BME280;12865;51.934;10.330;2023-05-18T06:57:52;100377.31;;;8.87;90.71
24762;BME280;12865;51.934;10.330;2023-05-18T07:00:41;100378.16;;;8.87;89.26
24762;BME280;12865;51.934;10.330;2023-05-18T07:03:27;100380.66;;;8.76;89.80
24762;BME280;12865;51.934;10.330;2023-05-18T07:06:12;100386.63;;;9.06;89.70
24762;BME280;12865;51.934;10.330;2023-05-18T07:08:58;100386.91;;;9.41;87.46
24762;BME280;12865;51.934;10.330;2023-05-18T07:11:44;100389.81;;;9.38;84.93
24762;BME280;12865;51.934;10.330;2023-05-18T07:14:29;100388.56;;;9.69;83.28
24762;BME280;12865;51.934;10.330;2023-05-18T07:17:15;100399.84;;;9.98;74.61
24762;BME280;12865;51.934;10.330;2023-05-18T07:20:01;100393.44;;;10.13;74.31
24762;BME280;12865;51.934;10.330;2023-05-18T07:22:46;100388.03;;;10.15;72.72
24762;BME280;12865;51.934;10.330;2023-05-18T07:25:32;100390.13;;;10.10;74.24
24762;BME280;12865;51.934;10.330;2023-05-18T07:28:18;100392.38;;;9.53;74.44
24762;BME280;12865;51.934;10.330;2023-05-18T07:31:04;100389.84;;;10.14;76.19
24762;BME280;12865;51.934;10.330;2023-05-18T07:33:50;100396.75;;;10.42;73.49
24762;BME280;12865;51.934;10.330;2023-05-18T07:36:36;100395.56;;;10.83;71.02
24762;BME280;12865;51.934;10.330;2023-05-18T07:39:21;100398.00;;;10.86;71.89
24762;BME280;12865;51.934;10.330;2023-05-18T07:42:12;100386.47;;;11.09;70.67
24762;BME280;12865;51.934;10.330;2023-05-18T07:44:58;100389.34;;;11.30;69.36
24762;BME280;12865;51.934;10.330;2023-05-18T07:50:11;100390.41;;;11.97;65.48
24762;BME280;12865;51.934;10.330;2023-05-18T07:52:57;100386.75;;;11.52;66.26
24762;BME280;12865;51.934;10.330;2023-05-18T07:55:43;100378.25;;;11.58;68.11
24762;BME280;12865;51.934;10.330;2023-05-18T07:58:28;100384.06;;;11.76;69.11
24762;BME280;12865;51.934;10.330;2023-05-18T08:01:14;100384.28;;;11.38;69.52
24762;BME280;12865;51.934;10.330;2023-05-18T08:04:00;100387.78;;;11.27;69.27
24762;BME280;12865;51.934;10.330;2023-05-18T08:06:46;100381.09;;;10.98;69.90
24762;BME280;12865;51.934;10.330;2023-05-18T08:09:31;100382.34;;;11.05;71.11
24762;BME280;12865;51.934;10.330;2023-05-18T08:12:17;100384.16;;;11.39;69.54
24762;BME280;12865;51.934;10.330;2023-05-18T08:15:03;100379.13;;;11.59;69.29
24762;BME280;12865;51.934;10.330;2023-05-18T08:17:49;100384.72;;;11.56;67.91
24762;BME280;12865;51.934;10.330;2023-05-18T08:20:34;100374.75;;;11.58;68.89
24762;BME280;12865;51.934;10.330;2023-05-18T08:23:20;100388.53;;;11.40;69.77
24762;BME280;12865;51.934;10.330;2023-05-18T08:26:06;100380.81;;;12.28;64.81
24762;BME280;12865;51.934;10.330;2023-05-18T08:28:53;100382.50;;;12.40;64.30
24762;BME280;12865;51.934;10.330;2023-05-18T08:31:40;100380.56;;;12.53;64.13
24762;BME280;12865;51.934;10.330;2023-05-18T08:34:25;100378.38;;;12.25;63.50
24762;BME280;12865;51.934;10.330;2023-05-18T08:37:11;100381.66;;;12.94;64.91
24762;BME280;12865;51.934;10.330;2023-05-18T08:39:57;100373.59;;;13.16;61.34
24762;BME280;12865;51.934;10.330;2023-05-18T08:43:02;100370.16;;;12.82;61.47
24762;BME280;12865;51.934;10.330;2023-05-18T08:45:51;100377.09;;;13.49;60.43
24762;BME280;12865;51.934;10.330;2023-05-18T08:48:40;100369.31;;;13.66;60.15
24762;BME280;12865;51.934;10.330;2023-05-18T08:51:30;100370.63;;;13.72;59.40
24762;BME280;12865;51.934;10.330;2023-05-18T08:54:22;100375.69;;;13.33;60.63
24762;BME280;12865;51.934;10.330;2023-05-18T08:57:08;100369.16;;;13.68;61.15
24762;BME280;12865;51.934;10.330;2023-05-18T08:59:56;100379.84;;;13.58;61.80
24762;BME280;12865;51.934;10.330;2023-05-18T09:02:43;100381.84;;;13.24;61.90
24762;BME280;12865;51.934;10.330;2023-05-18T09:05:30;100379.19;;;13.87;59.83
24762;BME280;12865;51.934;10.330;2023-05-18T09:08:17;100380.19;;;13.95;60.10
24762;BME280;12865;51.934;10.330;2023-05-18T09:11:04;100365.91;;;13.85;60.59
24762;BME280;12865;51.934;10.330;2023-05-18T09:13:50;100367.97;;;13.19;64.13
24762;BME280;12865;51.934;10.330;2023-05-18T09:16:35;100373.84;;;13.45;64.82
24762;BME280;12865;51.934;10.330;2023-05-18T09:19:21;100359.84;;;14.23;60.54
24762;BME280;12865;51.934;10.330;2023-05-18T09:22:08;100367.44;;;14.08;60.14
24762;BME280;12865;51.934;10.330;2023-05-18T09:24:54;100361.75;;;13.51;62.32
24762;BME280;12865;51.934;10.330;2023-05-18T09:27:41;100351.38;;;13.25;64.72
24762;BME280;12865;51.934;10.330;2023-05-18T09:30:27;100355.72;;;13.38;63.27
24762;BME280;12865;51.934;10.330;2023-05-18T09:33:19;100351.72;;;14.34;60.25
24762;BME280;12865;51.934;10.330;2023-05-18T09:36:09;100349.94;;;14.44;60.02
24762;BME280;12865;51.934;10.330;2023-05-18T09:38:56;100346.69;;;14.10;61.00
24762;BME280;12865;51.934;10.330;2023-05-18T09:41:43;100354.25;;;14.26;60.26
24762;BME280;12865;51.934;10.330;2023-05-18T09:44:33;100356.34;;;13.92;59.11
24762;BME280;12865;51.934;10.330;2023-05-18T09:47:19;100352.84;;;13.71;61.38
24762;BME280;12865;51.934;10.330;2023-05-18T09:50:05;100358.44;;;13.68;63.19
24762;BME280;12865;51.934;10.330;2023-05-18T09:52:51;100346.16;;;13.86;60.92
24762;BME280;12865;51.934;10.330;2023-05-18T09:55:44;100352.41;;;14.57;59.69
24762;BME280;12865;51.934;10.330;2023-05-18T09:58:31;100358.63;;;14.67;57.02
24762;BME280;12865;51.934;10.330;2023-05-18T10:01:18;100345.81;;;15.19;55.61
24762;BME280;12865;51.934;10.330;2023-05-18T10:04:04;100348.50;;;15.48;55.04
24762;BME280;12865;51.934;10.330;2023-05-18T10:06:50;100343.13;;;15.57;54.53
24762;BME280;12865;51.934;10.330;2023-05-18T10:09:42;100346.53;;;16.06;51.32
24762;BME280;12865;51.934;10.330;2023-05-18T10:12:28;100343.69;;;14.93;54.01
24762;BME280;12865;51.934;10.330;2023-05-18T10:15:15;100349.44;;;14.60;57.02
24762;BME280;12865;51.934;10.330;2023-05-18T10:18:02;100347.09;;;14.36;58.76
24762;BME280;12865;51.934;10.330;2023-05-18T10:20:50;100332.63;;;13.67;60.39
24762;BME280;12865;51.934;10.330;2023-05-18T10:23:39;100329.50;;;13.41;61.37
24762;BME280;12865;51.934;10.330;2023-05-18T10:26:27;100336.44;;;13.64;61.98
24762;BME280;12865;51.934;10.330;2023-05-18T10:29:14;100330.41;;;14.02;61.05
24762;BME280;12865;51.934;10.330;2023-05-18T10:32:04;100322.41;;;14.52;58.16
24762;BME280;12865;51.934;10.330;2023-05-18T10:34:52;100326.84;;;14.72;57.32
24762;BME280;12865;51.934;10.330;2023-05-18T10:37:40;100323.31;;;14.72;56.85
24762;BME280;12865;51.934;10.330;2023-05-18T10:40:27;100325.50;;;14.07;57.34
24762;BME280;12865;51.934;10.330;2023-05-18T10:43:15;100316.72;;;14.36;58.42
24762;BME280;12865;51.934;10.330;2023-05-18T10:46:04;100316.88;;;14.44;57.61
24762;BME280;12865;51.934;10.330;2023-05-18T10:48:51;100306.97;;;14.35;59.40
24762;BME280;12865;51.934;10.330;2023-05-18T10:51:40;100307.78;;;14.75;58.75
24762;BME280;12865;51.934;10.330;2023-05-18T10:54:28;100320.22;;;15.15;54.28
24762;BME280;12865;51.934;10.330;2023-05-18T10:57:16;100309.91;;;15.20;52.73
24762;BME280;12865;51.934;10.330;2023-05-18T11:00:05;100311.75;;;15.19;53.89
24762;BME280;12865;51.934;10.330;2023-05-18T11:02:55;100311.88;;;14.79;53.94
24762;BME280;12865;51.934;10.330;2023-05-18T11:05:41;100308.63;;;14.95;53.32
24762;BME280;12865;51.934;10.330;2023-05-18T11:08:27;100316.28;;;15.00;52.70
24762;BME280;12865;51.934;10.330;2023-05-18T11:11:13;100307.78;;;14.75;54.03
24762;BME280;12865;51.934;10.330;2023-05-18T11:14:01;100313.16;;;14.75;54.81
24762;BME280;12865;51.934;10.330;2023-05-18T11:16:47;100309.63;;;14.25;57.06
24762;BME280;12865;51.934;10.330;2023-05-18T11:19:33;100308.50;;;14.77;56.75
24762;BME280;12865;51.934;10.330;2023-05-18T11:22:19;100300.38;;;14.39;57.51
24762;BME280;12865;51.934;10.330;2023-05-18T11:25:07;100297.84;;;14.47;58.10
24762;BME280;12865;51.934;10.330;2023-05-18T11:28:01;100291.09;;;14.12;57.53
24762;BME280;12865;51.934;10.330;2023-05-18T11:30:49;100299.25;;;14.41;56.59
24762;BME280;12865;51.934;10.330;2023-05-18T11:33:39;100291.94;;;14.72;56.30
24762;BME280;12865;51.934;10.330;2023-05-18T11:36:27;100298.47;;;14.89;54.66
24762;BME280;12865;51.934;10.330;2023-05-18T11:39:22;100297.03;;;14.94;56.12
24762;BME280;12865;51.934;10.330;2023-05-18T11:42:09;100286.38;;;15.51;53.79
24762;BME280;12865;51.934;10.330;2023-05-18T11:44:55;100284.44;;;15.33;53.39
24762;BME280;12865;51.934;10.330;2023-05-18T11:47:41;100294.50;;;14.74;53.48
24762;BME280;12865;51.934;10.330;2023-05-18T11:50:29;100290.06;;;14.44;54.89
24762;BME280;12865;51.934;10.330;2023-05-18T11:53:14;100297.22;;;14.34;55.16
24762;BME280;12865;51.934;10.330;2023-05-18T11:56:01;100283.47;;;14.77;55.50
24762;BME280;12865;51.934;10.330;2023-05-18T11:59:10;100284.63;;;15.13;53.64
24762;BME280;12865;51.934;10.330;2023-05-18T12:01:59;100287.56;;;15.19;52.64
24762;BME280;12865;51.934;10.330;2023-05-18T12:04:47;100295.94;;;15.07;53.07
24762;BME280;12865;51.934;10.330;2023-05-18T12:07:33;100289.31;;;15.77;52.00
24762;BME280;12865;51.934;10.330;2023-05-18T12:10:20;100294.97;;;15.74;50.04
24762;BME280;12865;51.934;10.330;2023-05-18T12:13:06;100285.97;;;15.36;51.48
24762;BME280;12865;51.934;10.330;2023-05-18T12:15:53;100283.78;;;15.78;50.83
24762;BME280;12865;51.934;10.330;2023-05-18T12:18:40;100285.53;;;15.50;50.91
24762;BME280;12865;51.934;10.330;2023-05-18T12:21:26;100279.75;;;15.36;51.65
24762;BME280;12865;51.934;10.330;2023-05-18T12:24:12;100279.78;;;15.26;50.81
24762;BME280;12865;51.934;10.330;2023-05-18T12:26:58;100282.03;;;15.40;50.57
24762;BME280;12865;51.934;10.330;2023-05-18T12:29:44;100272.97;;;15.31;50.42
24762;BME280;12865;51.934;10.330;2023-05-18T12:32:30;100276.78;;;15.48;50.54
24762;BME280;12865;51.934;10.330;2023-05-18T12:35:16;100270.75;;;15.83;49.24
24762;BME280;12865;51.934;10.330;2023-05-18T12:38:02;100276.16;;;16.10;49.01
24762;BME280;12865;51.934;10.330;2023-05-18T12:40:47;100273.94;;;15.59;50.73
24762;BME280;12865;51.934;10.330;2023-05-18T12:43:35;100276.91;;;15.56;51.02
24762;BME280;12865;51.934;10.330;2023-05-18T12:46:22;100277.06;;;15.36;50.52
24762;BME280;12865;51.934;10.330;2023-05-18T12:49:08;100277.41;;;15.79;50.21
24762;BME280;12865;51.934;10.330;2023-05-18T12:51:54;100275.28;;;15.83;48.13
24762;BME280;12865;51.934;10.330;2023-05-18T12:55:06;100271.38;;;15.67;49.57
24762;BME280;12865;51.934;10.330;2023-05-18T13:00:47;100269.06;;;16.37;48.08
24762;BME280;12865;51.934;10.330;2023-05-18T13:03:33;100267.34;;;16.36;47.36
24762;BME280;12865;51.934;10.330;2023-05-18T13:06:19;100265.31;;;15.37;50.68
24762;BME280;12865;51.934;10.330;2023-05-18T13:09:11;100276.06;;;16.20;49.01
24762;BME280;12865;51.934;10.330;2023-05-18T13:11:58;100265.06;;;15.40;49.71
24762;BME280;12865;51.934;10.330;2023-05-18T13:14:45;100264.00;;;15.69;49.71
24762;BME280;12865;51.934;10.330;2023-05-18T13:17:31;100254.00;;;16.44;48.99
24762;BME280;12865;51.934;10.330;2023-05-18T13:20:17;100258.00;;;16.58;46.88
24762;BME280;12865;51.934;10.330;2023-05-18T13:23:06;100258.38;;;16.45;48.63
24762;BME280;12865;51.934;10.330;2023-05-18T13:25:51;100255.81;;;16.26;46.92
24762;BME280;12865;51.934;10.330;2023-05-18T13:28:37;100257.81;;;16.41;46.91
24762;BME280;12865;51.934;10.330;2023-05-18T13:31:23;100255.09;;;15.50;48.49
24762;BME280;12865;51.934;10.330;2023-05-18T13:34:09;100252.97;;;15.63;48.38
24762;BME280;12865;51.934;10.330;2023-05-18T13:36:55;100261.97;;;15.35;49.75
24762;BME280;12865;51.934;10.330;2023-05-18T13:39:41;100254.84;;;15.43;49.02
24762;BME280;12865;51.934;10.330;2023-05-18T13:42:27;100244.63;;;15.66;48.58
24762;BME280;12865;51.934;10.330;2023-05-18T13:45:13;100245.31;;;16.32;47.68
24762;BME280;12865;51.934;10.330;2023-05-18T13:47:59;100249.78;;;16.59;45.60
24762;BME280;12865;51.934;10.330;2023-05-18T13:50:44;100244.28;;;16.61;46.31
24762;BME280;12865;51.934;10.330;2023-05-18T13:53:30;100237.47;;;16.57;46.51
24762;BME280;12865;51.934;10.330;2023-05-18T13:56:16;100245.31;;;17.03;45.89
24762;BME280;12865;51.934;10.330;2023-05-18T13:59:02;100233.16;;;17.17;45.29
24762;BME280;12865;51.934;10.330;2023-05-18T14:01:47;100231.78;;;16.60;45.29
24762;BME280;12865;51.934;10.330;2023-05-18T14:04:34;100224.19;;;16.73;47.81
24762;BME280;12865;51.934;10.330;2023-05-18T14:07:19;100235.75;;;16.56;45.62
24762;BME280;12865;51.934;10.330;2023-05-18T14:10:06;100225.56;;;16.77;45.27
24762;BME280;12865;51.934;10.330;2023-05-18T14:12:52;100222.13;;;17.10;46.51
24762;BME280;12865;51.934;10.330;2023-05-18T14:15:38;100223.34;;;16.72;44.93
24762;BME280;12865;51.934;10.330;2023-05-18T14:18:23;100221.78;;;16.52;45.74
24762;BME280;12865;51.934;10.330;2023-05-18T14:21:09;100216.09;;;16.91;46.74
24762;BME280;12865;51.934;10.330;2023-05-18T14:23:55;100221.53;;;16.45;45.34
24762;BME280;12865;51.934;10.330;2023-05-18T14:26:40;100219.06;;;16.34;45.44